Latest Coastal Weather Observations for Milingimbi

IDD60701

Issued at 6:41 am CST Monday 2 February 2015 (issued every 10 minutes, with the page automatically refreshed every 10 minutes)

About coastal observations | Map of coastal stations | Coastal observations for NT | Marine services | Other Formats
Station Details ID: 014404 Name: MILINGIMBI AIRPORT Lat: -12.09 Lon: 134.89 Height: 15.0 m
Data from the previous 72 hours. | See also: Recent months at Milingimbi
Date/Time
CST
Temp

°C
Wind Pressure Rain
since 9am
mm
Weather Cloud Vis
km
Sea
Height
m
Swell
Dir
 
Speed
knots
Gust
knots
hPa Trend Height
m
Period
s
Dir
02/06:30am 24.3 CALM 0 0 1007.4 - 0.0 - - - - - - -
02/06:00am 24.8 SW 3 4 1006.8 - 0.0 - - - - - - -
02/05:30am 24.8 CALM 0 0 1006.7 - 0.0 - - - - - - -
02/05:00am 24.8 CALM 0 0 1006.4 - 0.0 - - - - - - -
02/04:30am 25.2 SSW 2 4 1006.2 - 0.0 - - - - - - -
02/04:00am 25.4 SW 4 5 1006.2 - 0.0 - - - - - - -
02/03:30am 25.8 WSW 4 5 1006.1 - 0.0 - - - - - - -
02/03:00am 26.5 W 4 5 1006.2 - 0.0 - - - - - - -
02/02:30am 27.3 W 7 9 1006.2 - 0.0 - - - - - - -
02/02:00am 27.0 NNW 4 6 1006.5 - 0.0 - - - - - - -
02/01:30am 27.1 NNW 3 5 1007.0 - 0.0 - - - - - - -
02/01:00am 27.2 N 4 6 1007.6 - 0.0 - - - - - - -
02/12:30am 28.0 NW 3 4 1008.5 - 0.0 - - - - - - -
02/12:00am 28.5 WSW 4 5 1009.1 - 0.0 - - - - - - -
 
Date/Time
CST
Temp

°C
Wind Pressure Rain
since 9am
mm
Weather Cloud Vis
km
Sea
Height
m
Swell
Dir
 
Speed
knots
Gust
knots
hPa Trend Height
m
Period
s
Dir
01/11:30pm 28.9 W 6 8 1009.3 - 0.0 - - - - - - -
01/11:00pm 29.1 WNW 6 9 1009.2 - 0.0 - - - - - - -
01/10:30pm 29.1 WNW 8 11 1008.6 - 0.0 - - - - - - -
01/10:00pm 29.0 NW 6 11 1007.6 - 0.0 - - - - - - -
01/09:30pm 29.1 NW 8 12 1007.8 - 0.0 - - - - - - -
01/09:00pm 29.3 NW 9 14 1007.5 - 0.0 - - - - - - -
01/08:30pm 29.4 NW 8 14 1007.3 - 0.0 - - - - - - -
01/08:00pm 29.4 NW 8 13 1006.7 - 0.0 - - - - - - -
01/07:30pm 29.4 NNW 8 12 1006.1 - 0.0 - - - - - - -
01/07:00pm 29.6 NW 8 13 1005.8 - 0.0 - - - - - - -
01/06:30pm 30.1 NW 8 14 1005.6 - 0.0 - - - - - - -
01/06:00pm 30.4 NNW 9 14 1005.3 - 0.0 - - - - - - -
01/05:30pm 30.8 NNW 7 11 1005.1 - 0.0 - - - - - - -
01/05:00pm 30.7 NNW 6 9 1004.8 - 0.0 - - - - - - -
01/04:30pm 31.1 NNW 8 14 1004.9 - 0.0 - - - - - - -
01/04:00pm 31.4 NNW 10 19 1004.7 - 0.0 - - - - - - -
01/03:30pm 32.6 N 8 14 1004.8 - 0.0 - - - - - - -
01/03:00pm 32.6 N 9 15 1005.0 - 0.0 - - - - - - -
01/02:30pm 33.9 NW 7 14 1005.5 - 0.0 - - - - - - -
01/02:00pm 34.7 NW 6 11 1005.7 - 0.0 - - - - - - -
01/01:30pm 35.1 WNW 7 12 1006.2 - 0.0 - - - - - - -
01/01:00pm 34.0 WNW 6 11 1006.7 - 0.0 - - - - - - -
01/12:30pm 33.2 W 6 8 1007.1 - 0.0 - - - - - - -
01/12:00pm 33.0 WNW 8 12 1007.6 - 0.0 - - - - - - -
01/11:30am 32.1 WNW 8 14 1007.9 - 0.0 - - - - - - -
01/11:00am 31.7 WNW 9 14 1007.8 - 0.0 - - - - - - -
01/10:30am 31.7 W 10 13 1007.7 - 0.0 - - - - - - -
01/10:00am 31.0 W 11 14 1007.9 - 0.0 - - - - - - -
01/09:30am 30.2 W 10 15 1008.0 - 0.0 - - - - - - -
01/09:00am 29.7 W 10 14 1007.8 - 2.0 - - - - - - -
01/08:30am 28.9 WNW 8 11 1007.7 - 2.0 - - - - - - -
01/08:00am 28.0 WNW 6 9 1007.5 - 2.0 - - - - - - -
01/07:30am 26.9 WNW 5 6 1007.5 - 2.0 - - - - - - -
01/07:00am 26.3 W 4 5 1007.5 - 2.0 - - - - - - -
01/06:30am 26.0 W 4 6 1007.2 - 2.0 - - - - - - -
01/06:00am 25.8 WNW 5 6 1007.0 - 2.0 - - - - - - -
01/05:30am 25.7 WNW 5 7 1007.0 - 2.0 - - - - - - -
01/05:00am 25.6 W 4 5 1006.7 - 2.0 - - - - - - -
01/04:30am 25.4 WSW 4 5 1006.6 - 2.0 - - - - - - -
01/04:00am 25.3 S 3 5 1006.4 - 2.0 - - - - - - -
01/03:30am 25.6 SSE 4 6 1006.6 - 2.0 - - - - - - -
01/03:00am 25.7 SSE 5 6 1006.8 - 2.0 - - - - - - -
01/02:30am 26.0 S 3 4 1007.0 - 2.0 - - - - - - -
01/02:00am 25.9 S 4 6 1007.3 - 2.0 - - - - - - -
01/01:30am 26.0 SSE 4 5 1007.4 - 1.8 - - - - - - -
01/01:00am 26.1 S 3 5 1007.4 - 1.8 - - - - - - -
01/12:30am 26.2 WSW 4 6 1007.7 - 1.8 - - - - - - -
01/12:00am 26.3 W 5 6 1007.8 - 1.8 - - - - - - -
 
Date/Time
CST
Temp

°C
Wind Pressure Rain
since 9am
mm
Weather Cloud Vis
km
Sea
Height
m
Swell
Dir
 
Speed
knots
Gust
knots
hPa Trend Height
m
Period
s
Dir
31/11:30pm 26.3 WNW 5 7 1008.5 - 1.8 - - - - - - -
31/11:00pm 26.1 W 5 8 1008.7 - 1.8 - - - - - - -
31/10:30pm 26.4 W 6 8 1008.7 - 1.8 - - - - - - -
31/10:00pm 26.3 WNW 7 10 1008.6 - 1.8 - - - - - - -
31/09:30pm 26.3 WNW 7 10 1008.1 - 1.8 - - - - - - -
31/09:00pm 26.0 WNW 7 11 1007.4 - 1.8 - - - - - - -
31/08:30pm 25.9 NW 7 11 1007.7 - 1.4 - - - - - - -
31/08:00pm 25.7 WNW 6 9 1007.3 - 1.2 - - - - - - -
31/07:30pm 25.3 WNW 10 13 1007.2 - 1.2 - - - - - - -
31/07:00pm 26.1 S 6 11 1007.1 - 0.0 - - - - - - -
31/06:30pm 27.0 WSW 14 21 1006.9 - 0.0 - - - - - - -
31/06:00pm 30.0 NW 9 15 1005.6 - 0.0 - - - - - - -
31/05:30pm 30.6 NW 9 14 1004.9 - 0.0 - - - - - - -
31/05:00pm 31.1 NW 9 17 1004.3 - 0.0 - - - - - - -
31/04:30pm 31.8 NNW 10 17 1004.5 - 0.0 - - - - - - -
31/04:00pm 32.4 NNW 8 14 1004.6 - 0.0 - - - - - - -
31/03:30pm 32.4 NNW 8 13 1004.6 - 0.0 - - - - - - -
31/03:00pm 32.9 NW 9 15 1004.9 - 0.0 - - - - - - -
31/02:30pm 33.4 NW 9 13 1005.5 - 0.0 - - - - - - -
31/02:00pm 32.9 NW 9 13 1005.7 - 0.0 - - - - - - -
31/01:30pm 33.6 NW 9 13 1006.1 - 0.0 - - - - - - -
31/01:00pm 33.2 WNW 10 15 1006.6 - 0.0 - - - - - - -
31/12:30pm 32.8 NW 10 16 1007.0 - 0.0 - - - - - - -
31/12:00pm 32.9 WNW 8 13 1007.4 - 0.0 - - - - - - -
31/11:30am 32.7 WNW 10 14 1007.6 - 0.0 - - - - - - -
31/11:00am 32.5 WNW 9 13 1007.7 - 0.0 - - - - - - -
31/10:30am 32.0 W 9 13 1007.8 - 0.0 - - - - - - -
31/10:00am 31.2 W 12 16 1007.8 - 0.0 - - - - - - -
31/09:30am 30.7 W 12 15 1008.2 - 0.0 - - - - - - -
31/09:00am 29.9 W 9 15 1008.0 - 2.0 - - - - - - -
31/08:30am 29.2 W 10 14 1008.0 - 2.0 - - - - - - -
31/08:00am 28.3 W 8 12 1008.0 - 2.0 - - - - - - -
31/07:30am 27.5 WNW 7 9 1007.9 - 2.0 - - - - - - -
31/07:00am 26.3 WNW 6 8 1007.6 - 2.0 - - - - - - -
31/06:30am 25.4 WNW 4 6 1007.3 - 2.0 - - - - - - -
31/06:00am 25.3 CALM 0 0 1007.1 - 2.0 - - - - - - -
31/05:30am 25.6 WNW 3 4 1007.1 - 2.0 - - - - - - -
31/05:00am 25.8 WNW 3 4 1006.8 - 2.0 - - - - - - -
31/04:30am 25.8 W 5 6 1006.7 - 2.0 - - - - - - -
31/04:00am 25.9 WSW 4 5 1006.6 - 2.0 - - - - - - -
31/03:30am 26.0 W 3 4 1006.7 - 2.0 - - - - - - -
31/03:00am 26.4 W 5 7 1006.6 - 2.0 - - - - - - -
31/02:30am 26.6 W 6 8 1006.9 - 2.0 - - - - - - -
31/02:00am 26.5 WNW 6 8 1007.0 - 2.0 - - - - - - -
31/01:30am 26.4 W 1 4 1007.4 - 2.0 - - - - - - -
31/01:00am 26.1 WNW 4 5 1007.7 - 2.0 - - - - - - -
31/12:30am 26.0 W 5 6 1008.1 - 2.0 - - - - - - -
31/12:00am 26.0 W 5 6 1008.5 - 2.0 - - - - - - -
 
Date/Time
CST
Temp

°C
Wind Pressure Rain
since 9am
mm
Weather Cloud Vis
km
Sea
Height
m
Swell
Dir
 
Speed
knots
Gust
knots
hPa Trend Height
m
Period
s
Dir
30/11:30pm 25.7 W 4 5 1009.0 - 2.0 - - - - - - -
30/11:00pm 25.7 SW 3 5 1009.1 - 2.0 - - - - - - -
30/10:30pm 25.8 CALM 0 0 1009.1 - 2.0 - - - - - - -
30/10:00pm 25.8 SSW 3 5 1009.2 - 2.0 - - - - - - -
30/09:30pm 25.9 SW 3 5 1008.9 - 2.0 - - - - - - -
30/09:00pm 26.1 SSW 4 6 1008.3 - 2.0 - - - - - - -
30/08:30pm 26.2 SW 5 7 1008.1 - 2.0 - - - - - - -
30/08:00pm 26.3 W 5 6 1007.7 - 2.0 - - - - - - -
30/07:30pm 26.2 W 6 9 1007.6 - 2.0 - - - - - - -
30/07:00pm 26.5 W 8 11 1007.2 - 1.8 - - - - - - -
30/06:30pm 27.4 WNW 9 13 1006.8 - 1.8 - - - - - - -
30/06:00pm 27.6 W 9 12 1006.5 - 1.2 - - - - - - -
30/05:30pm 28.5 WNW 10 16 1006.0 - 0.0 - - - - - - -
30/05:00pm 30.1 WNW 14 20 1005.7 - 0.0 - - - - - - -
30/04:30pm 30.4 WNW 11 17 1005.7 - 0.0 - - - - - - -
30/04:00pm 31.1 WNW 10 17 1005.5 - 0.0 - - - - - - -
30/03:30pm 31.1 NW 10 17 1005.1 - 0.0 - - - - - - -
30/03:00pm 32.2 NW 11 18 1005.0 - 0.0 - - - - - - -
30/02:30pm 32.4 NW 10 15 1005.5 - 0.0 - - - - - - -
30/02:00pm 32.1 NNW 9 16 1005.7 - 0.0 - - - - - - -
30/01:30pm 32.7 NW 9 14 1006.2 - 0.0 - - - - - - -
30/01:00pm 32.1 WNW 12 19 1006.8 - 0.0 - - - - - - -
30/12:30pm 32.7 NNW 8 13 1007.3 - 0.0 - - - - - - -
30/12:00pm 32.1 NW 8 13 1007.6 - 0.0 - - - - - - -
30/11:30am 31.8 NW 9 14 1007.8 - 0.0 - - - - - - -
30/11:00am 31.5 NW 8 13 1008.1 - 0.0 - - - - - - -
30/10:30am 31.4 WNW 10 14 1008.2 - 0.0 - - - - - - -
30/10:00am 31.0 WNW 12 18 1008.2 - 0.0 - - - - - - -
30/09:30am 31.1 WNW 9 14 1007.9 - 0.0 - - - - - - -
30/09:00am 30.0 WNW 9 14 1007.7 - 0.0 - - - - - - -
30/08:30am 29.4 WNW 10 14 1007.9 - 0.0 - - - - - - -
30/08:00am 28.7 W 11 15 1007.8 - 0.0 - - - - - - -
30/07:30am 27.9 W 8 11 1007.7 - 0.0 - - - - - - -
30/07:00am 27.0 W 6 8 1007.5 - 0.0 - - - - - - -

Other Formats:

Comma delimited format used in spreadsheet applications
http://www.bom.gov.au/fwo/IDD60701/IDD60701.94140.axf

JavaScript Object Notation format (JSON) in row-major order
http://www.bom.gov.au/fwo/IDD60701/IDD60701.94140.json